createdAt,value
2018-12-23T00:00:57.349Z,20.97
2018-12-23T00:03:24.770Z,24.13
2018-12-23T00:05:52.138Z,27.53
2018-12-23T00:08:19.625Z,24.40
2018-12-23T00:10:47.072Z,21.73
2018-12-23T00:13:14.466Z,25.47
2018-12-23T00:15:41.933Z,31.73
2018-12-23T00:18:09.378Z,27.77
2018-12-23T00:20:36.767Z,19.80
2018-12-23T00:23:04.250Z,34.10
2018-12-23T00:25:31.673Z,30.07
2018-12-23T00:27:59.074Z,25.03
2018-12-23T00:30:26.482Z,30.03
2018-12-23T00:32:53.919Z,27.63
2018-12-23T00:35:21.319Z,26.07
2018-12-23T00:37:48.740Z,22.60
2018-12-23T00:40:16.156Z,21.90
2018-12-23T00:42:43.563Z,24.70
2018-12-23T00:45:10.971Z,22.17
2018-12-23T00:47:38.398Z,36.57
2018-12-23T00:50:06.619Z,22.77
2018-12-23T00:52:34.046Z,40.10
2018-12-23T00:55:01.506Z,19.13
2018-12-23T00:57:28.926Z,31.33
2018-12-23T00:59:56.333Z,21.93
2018-12-23T01:02:23.776Z,25.73
2018-12-23T01:04:51.214Z,27.87
2018-12-23T01:07:18.614Z,27.63
2018-12-23T01:09:46.036Z,22.13
2018-12-23T01:12:13.493Z,25.23
2018-12-23T01:14:40.928Z,23.83
2018-12-23T01:17:08.335Z,23.00
2018-12-23T01:19:35.725Z,24.60
2018-12-23T01:22:03.128Z,29.50
2018-12-23T01:24:30.580Z,33.27
2018-12-23T01:26:57.979Z,22.87
2018-12-23T01:29:25.370Z,27.03
2018-12-23T01:31:52.918Z,24.67
2018-12-23T01:34:20.300Z,23.53
2018-12-23T01:36:47.710Z,23.77
2018-12-23T01:39:15.211Z,26.40
2018-12-23T01:41:42.580Z,31.73
2018-12-23T01:44:09.991Z,27.47
2018-12-23T01:46:37.423Z,19.80
2018-12-23T01:49:05.087Z,27.47
2018-12-23T01:51:32.559Z,29.03
2018-12-23T01:54:00.297Z,18.80
2018-12-23T01:56:27.680Z,24.53
2018-12-23T01:58:55.113Z,26.67
2018-12-23T02:01:22.534Z,27.07
2018-12-23T02:03:49.947Z,27.87
2018-12-23T02:06:17.323Z,26.27
2018-12-23T02:08:44.758Z,19.13
2018-12-23T02:11:12.190Z,22.93
2018-12-23T02:13:39.579Z,24.67
2018-12-23T02:16:07.090Z,25.80
2018-12-23T02:18:34.789Z,26.23
2018-12-23T02:21:02.187Z,36.13
2018-12-23T02:23:29.570Z,24.67
2018-12-23T02:25:57.097Z,29.53
2018-12-23T02:28:24.499Z,23.50
2018-12-23T02:30:51.948Z,23.80
2018-12-23T02:33:19.422Z,28.83
2018-12-23T02:35:55.255Z,22.90
2018-12-23T02:38:16.272Z,29.87
2018-12-23T02:40:43.658Z,28.77
2018-12-23T02:43:11.067Z,20.87
2018-12-23T02:45:38.518Z,18.20
2018-12-23T02:48:05.959Z,25.17
2018-12-23T02:50:33.391Z,29.10
2018-12-23T02:53:00.809Z,33.30
2018-12-23T02:55:28.231Z,28.60
2018-12-23T02:57:55.605Z,22.60
2018-12-23T03:00:23.034Z,22.73
2018-12-23T03:02:50.419Z,21.27
2018-12-23T03:05:17.829Z,26.30
2018-12-23T03:07:45.194Z,27.20
2018-12-23T03:10:12.627Z,23.60
2018-12-23T03:12:40.021Z,30.77
2018-12-23T03:15:07.598Z,23.43
2018-12-23T03:17:35.016Z,26.87
2018-12-23T03:20:02.523Z,29.97
2018-12-23T03:22:29.936Z,23.27
2018-12-23T03:24:57.420Z,25.43
2018-12-23T03:27:24.825Z,27.60
2018-12-23T03:29:52.202Z,27.83
2018-12-23T03:32:19.606Z,26.13
2018-12-23T03:34:47.010Z,16.20
2018-12-23T03:37:14.403Z,30.80
2018-12-23T03:39:41.817Z,29.03
2018-12-23T03:42:09.333Z,22.40
2018-12-23T03:44:36.709Z,28.03
2018-12-23T03:47:04.174Z,21.07
2018-12-23T03:49:31.615Z,26.23
2018-12-23T03:51:59.007Z,23.53
2018-12-23T03:54:26.570Z,16.83
2018-12-23T03:56:54.060Z,22.20
2018-12-23T03:59:21.461Z,18.57
2018-12-23T04:01:48.950Z,23.37
2018-12-23T04:04:16.365Z,24.03
2018-12-23T04:06:43.806Z,30.30
2018-12-23T04:09:11.178Z,21.77
2018-12-23T04:11:38.590Z,23.87
2018-12-23T04:14:05.990Z,21.40
2018-12-23T04:16:33.395Z,17.67
2018-12-23T04:19:00.789Z,23.57
2018-12-23T04:21:28.211Z,25.07
2018-12-23T04:23:55.630Z,28.20
2018-12-23T04:26:23.026Z,19.33
2018-12-23T04:28:50.444Z,17.93
2018-12-23T04:31:18.061Z,27.77
2018-12-23T04:33:45.442Z,28.60
2018-12-23T04:36:12.828Z,19.27
2018-12-23T04:38:40.226Z,21.97
2018-12-23T04:41:07.635Z,21.93
2018-12-23T04:43:35.044Z,19.77
2018-12-23T04:46:02.485Z,26.00
2018-12-23T04:48:29.888Z,25.20
2018-12-23T04:50:57.535Z,19.27
2018-12-23T04:53:24.941Z,24.50
2018-12-23T04:55:52.335Z,31.83
2018-12-23T04:58:19.745Z,30.17
2018-12-23T05:00:47.190Z,21.27
2018-12-23T05:03:14.617Z,25.53
2018-12-23T05:05:42.170Z,28.17
2018-12-23T05:08:09.625Z,17.77
2018-12-23T05:10:37.052Z,27.37
2018-12-23T05:13:04.508Z,24.67
2018-12-23T05:15:31.898Z,19.70
2018-12-23T05:17:59.301Z,25.33
2018-12-23T05:20:26.682Z,30.43
2018-12-23T05:22:54.099Z,25.60
2018-12-23T05:25:21.468Z,34.67
2018-12-23T05:27:48.862Z,21.73
2018-12-23T05:30:16.296Z,20.63
2018-12-23T05:32:43.673Z,28.20
2018-12-23T05:35:11.064Z,34.83
2018-12-23T05:37:38.422Z,41.17
2018-12-23T05:40:05.893Z,22.00
2018-12-23T05:42:33.296Z,43.53
2018-12-23T05:45:00.709Z,36.60
2018-12-23T05:47:28.081Z,29.63
2018-12-23T05:49:55.478Z,32.43
2018-12-23T05:52:23.875Z,32.07
2018-12-23T05:54:51.435Z,34.17
2018-12-23T05:57:18.822Z,22.43
2018-12-23T05:59:46.227Z,41.50
2018-12-23T06:02:13.602Z,26.87
2018-12-23T06:04:41.066Z,45.37
2018-12-23T06:07:08.450Z,32.93
2018-12-23T06:09:35.814Z,28.40
2018-12-23T06:12:03.284Z,30.27
2018-12-23T06:14:30.664Z,28.97
2018-12-23T06:16:58.039Z,29.73
2018-12-23T06:19:25.460Z,39.47
2018-12-23T06:21:52.985Z,28.10
2018-12-23T06:24:20.359Z,30.87
2018-12-23T06:26:47.783Z,43.13
2018-12-23T06:29:15.227Z,48.57
2018-12-23T06:31:42.621Z,33.57
2018-12-23T06:34:09.997Z,32.03
2018-12-23T06:36:37.407Z,29.50
2018-12-23T06:39:05.341Z,39.40
2018-12-23T06:41:32.736Z,35.80
2018-12-23T06:44:00.162Z,26.53
2018-12-23T06:46:27.549Z,37.57
2018-12-23T06:48:54.910Z,31.40
2018-12-23T06:51:22.353Z,24.63
2018-12-23T06:53:49.761Z,38.00
2018-12-23T06:56:17.193Z,34.03
2018-12-23T06:58:44.619Z,25.70
2018-12-23T07:01:12.038Z,24.90
2018-12-23T07:03:39.427Z,26.20
2018-12-23T07:06:06.907Z,25.97
2018-12-23T07:08:34.324Z,27.80
2018-12-23T07:11:01.725Z,33.70
2018-12-23T07:14:10.532Z,36.63
2018-12-23T07:16:38.039Z,29.77
2018-12-23T07:19:05.767Z,29.13
2018-12-23T07:21:33.464Z,30.23
2018-12-23T07:24:01.060Z,36.83
2018-12-23T07:26:28.575Z,39.80
2018-12-23T07:32:04.951Z,33.27
2018-12-23T07:34:32.579Z,27.93
2018-12-23T07:37:27.216Z,32.73
2018-12-23T07:39:49.442Z,26.77
2018-12-23T07:42:17.620Z,37.47
2018-12-23T07:44:45.548Z,27.30
2018-12-23T07:47:13.230Z,28.53
2018-12-23T07:49:41.122Z,31.73
2018-12-23T07:52:08.777Z,29.70
2018-12-23T07:54:36.681Z,39.07
2018-12-23T07:57:04.370Z,29.70
2018-12-23T07:59:32.097Z,37.07
2018-12-23T08:02:00.055Z,33.03
2018-12-23T08:04:27.656Z,24.53
2018-12-23T08:06:55.316Z,22.20
2018-12-23T08:09:23.011Z,24.63
2018-12-23T08:11:51.154Z,29.03
2018-12-23T08:14:18.857Z,39.50
2018-12-23T08:16:46.459Z,31.40
2018-12-23T08:19:14.382Z,35.50
2018-12-23T08:21:42.299Z,26.33
2018-12-23T08:24:10.279Z,28.43
2018-12-23T08:26:37.986Z,28.10
2018-12-23T08:29:05.883Z,36.57
2018-12-23T08:31:33.884Z,34.27
2018-12-23T08:34:01.685Z,34.73
2018-12-23T08:36:29.432Z,32.47
2018-12-23T08:38:57.132Z,31.67
2018-12-23T08:41:24.863Z,22.43
2018-12-23T08:43:52.605Z,31.80
2018-12-23T08:46:20.308Z,24.60
2018-12-23T08:48:47.989Z,33.93
2018-12-23T08:51:15.629Z,31.03
2018-12-23T08:53:43.540Z,27.87
2018-12-23T08:56:11.174Z,28.60
2018-12-23T08:58:38.799Z,31.67
2018-12-23T09:01:06.566Z,43.67
2018-12-23T09:03:34.266Z,42.70
2018-12-23T09:06:01.856Z,46.33
2018-12-23T09:08:29.594Z,52.10
2018-12-23T09:10:57.583Z,40.87
2018-12-23T09:13:25.208Z,32.83
2018-12-23T09:15:53.045Z,44.20
2018-12-23T09:18:20.661Z,41.67
2018-12-23T09:20:48.635Z,44.63
2018-12-23T09:23:16.223Z,51.00
2018-12-23T09:25:44.105Z,42.00
2018-12-23T09:28:12.015Z,47.70
2018-12-23T09:30:39.631Z,47.97
2018-12-23T09:33:07.310Z,43.17
2018-12-23T09:35:34.962Z,48.50
2018-12-23T09:38:02.909Z,52.53
2018-12-23T09:40:30.766Z,37.17
2018-12-23T09:42:58.518Z,48.47
2018-12-23T09:45:26.242Z,45.23
2018-12-23T09:47:55.114Z,44.47
2018-12-23T09:50:22.792Z,44.30
2018-12-23T09:52:50.507Z,47.43
2018-12-23T09:55:18.236Z,39.83
2018-12-23T09:57:45.980Z,41.37
2018-12-23T10:00:13.662Z,41.17
2018-12-23T10:02:41.372Z,40.13
2018-12-23T10:05:08.987Z,45.73
2018-12-23T10:07:36.696Z,42.37
2018-12-23T10:10:04.868Z,34.37
2018-12-23T10:12:32.528Z,40.63
2018-12-23T10:15:00.236Z,42.53
2018-12-23T10:17:27.865Z,38.30
2018-12-23T10:19:55.556Z,50.77
2018-12-23T10:22:23.280Z,29.43
2018-12-23T10:24:50.913Z,38.83
2018-12-23T10:27:18.605Z,38.03
2018-12-23T10:29:46.251Z,38.80
2018-12-23T10:32:13.977Z,34.03
2018-12-23T10:34:41.716Z,36.87
2018-12-23T10:37:09.398Z,39.77
2018-12-23T10:39:36.912Z,22.93
2018-12-23T10:42:04.538Z,41.77
2018-12-23T10:44:32.184Z,36.77
2018-12-23T10:46:59.803Z,48.10
2018-12-23T10:49:27.382Z,39.73
2018-12-23T10:51:55.532Z,45.27
2018-12-23T10:54:23.054Z,38.40
2018-12-23T10:56:51.084Z,39.40
2018-12-23T10:59:18.771Z,42.97
2018-12-23T11:01:46.385Z,45.00
2018-12-23T11:04:15.456Z,39.97
2018-12-23T11:06:43.064Z,44.70
2018-12-23T11:09:10.779Z,45.73
2018-12-23T11:11:38.759Z,33.10
2018-12-23T11:14:06.486Z,39.93
2018-12-23T11:16:34.182Z,42.50
2018-12-23T11:19:01.936Z,50.57
2018-12-23T11:21:29.556Z,49.27
2018-12-23T11:23:57.153Z,37.70
2018-12-23T11:26:24.781Z,38.70
2018-12-23T11:28:52.840Z,36.67
2018-12-23T11:31:20.459Z,48.80
2018-12-23T11:34:07.541Z,43.67
2018-12-23T11:36:35.238Z,36.60
2018-12-23T11:39:22.296Z,36.50
2018-12-23T11:41:49.805Z,41.80
2018-12-23T11:44:17.538Z,43.57
2018-12-23T11:46:45.623Z,35.23
2018-12-23T11:49:32.629Z,43.13
2018-12-23T11:52:00.866Z,32.70
2018-12-23T11:54:28.425Z,35.83
2018-12-23T11:56:56.407Z,31.27
2018-12-23T11:59:24.267Z,30.93
2018-12-23T12:01:51.868Z,29.80
2018-12-23T12:04:20.006Z,31.17
2018-12-23T12:06:47.691Z,27.70
2018-12-23T12:09:15.392Z,34.07
2018-12-23T12:11:43.121Z,30.90
2018-12-23T12:14:11.200Z,39.00
2018-12-23T12:16:39.225Z,32.60
2018-12-23T12:19:06.916Z,40.67
2018-12-23T12:21:34.538Z,34.53
2018-12-23T12:24:02.439Z,37.47
2018-12-23T12:26:30.147Z,38.43
2018-12-23T12:28:58.020Z,44.23
2018-12-23T12:31:25.624Z,37.00
2018-12-23T12:33:53.346Z,34.50
2018-12-23T12:36:21.060Z,36.27
2018-12-23T12:38:52.213Z,43.33
2018-12-23T12:41:18.804Z,40.10
2018-12-23T12:44:06.265Z,43.87
2018-12-23T12:46:34.274Z,52.03
2018-12-23T12:49:01.965Z,48.37
2018-12-23T12:51:29.485Z,45.00
2018-12-23T12:53:57.371Z,50.17
2018-12-23T12:56:24.952Z,45.27
2018-12-23T12:58:52.579Z,52.90
2018-12-23T13:01:20.269Z,52.83
2018-12-23T13:03:48.271Z,49.47
2018-12-23T13:06:15.963Z,48.27
2018-12-23T13:08:43.595Z,63.07
2018-12-23T13:11:11.235Z,40.53
2018-12-23T13:13:39.233Z,38.70
2018-12-23T13:16:07.207Z,36.27
2018-12-23T13:18:34.905Z,33.40
2018-12-23T13:21:02.876Z,39.97
2018-12-23T13:23:30.506Z,33.27
2018-12-23T13:25:58.407Z,30.20
2018-12-23T13:28:26.025Z,35.47
2018-12-23T13:30:53.763Z,27.03
2018-12-23T13:33:21.481Z,37.10
2018-12-23T13:35:49.631Z,22.93
2018-12-23T13:38:17.245Z,25.10
2018-12-23T13:40:56.650Z,21.63
2018-12-23T13:43:42.280Z,27.77
2018-12-23T13:46:27.802Z,30.40
2018-12-23T13:49:24.096Z,27.63
2018-12-23T13:52:23.289Z,28.87
2018-12-23T13:55:10.403Z,29.73
2018-12-23T13:57:48.858Z,28.07
2018-12-23T14:00:53.398Z,31.47
2018-12-23T14:03:43.493Z,31.33
2018-12-23T14:06:29.053Z,43.13
2018-12-23T14:08:58.941Z,28.87
2018-12-23T14:11:37.300Z,27.53
2018-12-23T14:14:04.960Z,25.33
2018-12-23T14:16:32.607Z,26.17
2018-12-23T14:19:00.214Z,25.40
2018-12-23T14:21:27.862Z,25.23
2018-12-23T14:23:55.513Z,22.70
2018-12-23T14:26:23.479Z,30.13
2018-12-23T14:28:51.505Z,25.87
2018-12-23T14:31:19.192Z,25.80
2018-12-23T14:33:46.832Z,29.13
2018-12-23T14:36:14.349Z,28.63
2018-12-23T14:38:42.300Z,25.83
2018-12-23T14:41:10.432Z,31.80
2018-12-23T14:43:38.073Z,27.77
2018-12-23T14:46:05.916Z,29.50
2018-12-23T14:48:33.604Z,33.70
2018-12-23T14:51:01.500Z,35.83
2018-12-23T14:53:29.491Z,43.37
2018-12-23T14:55:57.149Z,33.80
2018-12-23T14:58:24.736Z,30.27
2018-12-23T15:00:52.425Z,39.20
2018-12-23T15:03:20.238Z,42.53
2018-12-23T15:05:47.868Z,37.33
2018-12-23T15:08:15.481Z,35.00
2018-12-23T15:10:43.133Z,56.57
2018-12-23T15:13:10.910Z,49.37
2018-12-23T15:15:38.552Z,37.57
2018-12-23T15:18:06.308Z,37.97
2018-12-23T15:20:34.002Z,38.47
2018-12-23T15:23:01.709Z,37.67
2018-12-23T15:25:29.346Z,45.03
2018-12-23T15:27:57.032Z,43.77
2018-12-23T15:30:24.947Z,74.87
2018-12-23T15:32:52.584Z,35.97
2018-12-23T15:35:20.577Z,33.17
2018-12-23T15:37:48.284Z,39.43
2018-12-23T15:40:15.904Z,34.77
2018-12-23T15:42:43.878Z,38.30
2018-12-23T15:45:11.607Z,37.47
2018-12-23T15:47:39.310Z,35.57
2018-12-23T15:50:07.484Z,38.43
2018-12-23T15:52:35.285Z,36.03
2018-12-23T15:55:02.914Z,45.83
2018-12-23T15:57:30.883Z,40.93
2018-12-23T15:59:58.604Z,44.63
2018-12-23T16:02:26.197Z,52.63
2018-12-23T16:04:54.740Z,49.93
2018-12-23T16:07:22.786Z,63.10
2018-12-23T16:09:51.301Z,57.30
2018-12-23T16:12:19.172Z,70.30
2018-12-23T16:14:47.069Z,71.20
2018-12-23T16:17:14.713Z,72.57
2018-12-23T16:19:42.699Z,86.03
2018-12-23T16:22:10.464Z,78.03
2018-12-23T16:24:38.063Z,91.53
2018-12-23T16:32:57.507Z,102.23
2018-12-23T16:35:25.236Z,106.30
2018-12-23T16:37:53.127Z,87.67
2018-12-23T16:40:21.125Z,96.67
2018-12-23T16:42:48.822Z,90.07
2018-12-23T16:45:16.516Z,98.43
2018-12-23T16:47:44.327Z,99.87
2018-12-23T16:50:12.049Z,111.10
2018-12-23T16:52:39.721Z,99.83
2018-12-23T16:55:07.364Z,95.30
2018-12-23T16:57:35.054Z,79.97
2018-12-23T17:00:03.251Z,80.03
2018-12-23T17:02:31.005Z,87.20
2018-12-23T17:05:04.092Z,81.73
2018-12-23T17:07:31.783Z,86.07
2018-12-23T17:10:07.869Z,62.70
2018-12-23T17:12:29.279Z,68.93
2018-12-23T17:14:59.661Z,68.23
2018-12-23T17:17:27.452Z,58.17
2018-12-23T17:20:01.943Z,64.60
2018-12-23T17:22:29.691Z,75.17
2018-12-23T17:25:07.191Z,63.73
2018-12-23T17:27:34.801Z,54.53
2018-12-23T17:30:02.416Z,63.07
2018-12-23T17:32:30.122Z,59.73
2018-12-23T17:35:07.494Z,49.27
2018-12-23T17:37:35.181Z,53.37
2018-12-23T17:40:02.881Z,50.37
2018-12-23T17:42:30.468Z,58.80
2018-12-23T17:44:58.078Z,50.53
2018-12-23T17:47:25.996Z,53.93
2018-12-23T17:49:53.652Z,60.33
2018-12-23T17:52:23.372Z,57.37
2018-12-23T17:54:50.849Z,51.87
2018-12-23T17:57:18.434Z,60.07
2018-12-23T17:59:46.236Z,53.57
2018-12-23T18:02:13.865Z,52.50
2018-12-23T18:04:41.480Z,54.87
2018-12-23T18:07:09.077Z,56.60
2018-12-23T18:09:36.707Z,60.93
2018-12-23T18:12:04.366Z,52.67
2018-12-23T18:14:32.387Z,57.50
2018-12-23T18:17:00.117Z,56.47
2018-12-23T18:19:27.841Z,54.60
2018-12-23T18:21:55.537Z,62.10
2018-12-23T18:24:23.178Z,53.50
2018-12-23T18:26:50.874Z,57.43
2018-12-23T18:29:18.516Z,59.77
2018-12-23T18:31:46.122Z,59.30
2018-12-23T18:34:14.058Z,61.77
2018-12-23T18:36:41.701Z,61.17
2018-12-23T18:39:09.918Z,56.83
2018-12-23T18:41:37.553Z,60.23
2018-12-23T18:44:05.265Z,52.57
2018-12-23T18:46:33.246Z,50.63
2018-12-23T18:49:01.303Z,55.53
2018-12-23T18:51:28.944Z,45.40
2018-12-23T18:53:56.603Z,51.00
2018-12-23T18:56:28.887Z,35.17
2018-12-23T18:58:56.614Z,42.60
2018-12-23T19:01:24.397Z,33.00
2018-12-23T19:07:06.414Z,28.37
2018-12-23T19:09:44.608Z,28.13
2018-12-23T19:12:30.324Z,30.70
2018-12-23T19:15:20.591Z,26.23
2018-12-23T19:18:07.698Z,21.87
2018-12-23T19:20:51.617Z,17.50
2018-12-23T19:23:43.171Z,10.87
2018-12-23T19:32:34.365Z,34.00
2018-12-23T19:35:12.345Z,8.80
2018-12-23T19:37:57.776Z,10.73
2018-12-23T19:40:50.338Z,10.83
2018-12-23T19:43:33.645Z,11.27
2018-12-23T19:46:29.116Z,9.03
2018-12-23T19:49:16.067Z,10.47
2018-12-23T19:57:51.565Z,7.40
2018-12-23T20:00:34.621Z,10.53
2018-12-23T20:03:15.903Z,9.03
2018-12-23T20:06:01.614Z,11.17
2018-12-23T20:08:37.000Z,14.53
2018-12-23T20:11:28.491Z,11.57
2018-12-23T20:14:21.717Z,10.80
2018-12-23T20:17:08.730Z,12.77
2018-12-23T20:19:54.315Z,17.13
2018-12-23T20:22:43.682Z,15.20
2018-12-23T20:25:40.049Z,19.43
2018-12-23T20:28:42.330Z,22.70
2018-12-23T20:31:34.484Z,25.80
2018-12-23T20:34:20.028Z,27.20
2018-12-23T20:36:52.740Z,33.33
2018-12-23T20:39:48.849Z,28.63
2018-12-23T20:42:34.540Z,23.10
2018-12-23T20:45:30.410Z,11.90
2018-12-23T20:48:31.886Z,10.10
2018-12-23T20:51:17.651Z,14.07
2018-12-23T20:54:16.543Z,12.50
2018-12-23T20:57:09.304Z,6.67
2018-12-23T20:59:57.194Z,9.73
2018-12-23T21:02:56.138Z,18.17
2018-12-23T21:05:42.091Z,22.40
2018-12-23T21:08:41.326Z,24.97
2018-12-23T21:11:28.651Z,10.90
2018-12-23T21:14:16.775Z,13.70
2018-12-23T21:17:02.646Z,11.83
2018-12-23T21:19:58.466Z,13.77
2018-12-23T21:22:46.061Z,10.13
2018-12-23T21:25:18.812Z,13.57
2018-12-23T21:27:59.855Z,8.70
2018-12-23T21:30:49.603Z,11.70
2018-12-23T21:33:51.783Z,9.77
2018-12-23T21:36:27.102Z,9.80
2018-12-23T21:39:02.406Z,10.53
2018-12-23T21:41:35.215Z,10.20
2018-12-23T21:44:19.847Z,11.67
2018-12-23T21:47:12.721Z,20.13
2018-12-23T21:49:53.638Z,28.40
2018-12-23T21:52:39.834Z,15.87
2018-12-23T21:55:25.368Z,14.17
2018-12-23T21:57:58.799Z,11.73
2018-12-23T22:00:54.998Z,19.40
2018-12-23T22:03:44.906Z,15.97
2018-12-23T22:06:44.154Z,17.60
2018-12-23T22:09:46.884Z,23.03
2018-12-23T22:12:23.345Z,15.90
2018-12-23T22:14:51.062Z,13.87
2018-12-23T22:17:18.698Z,7.40
2018-12-23T22:19:46.569Z,6.80
2018-12-23T22:22:14.219Z,10.50
2018-12-23T22:24:41.815Z,15.13
2018-12-23T22:27:09.541Z,12.97
2018-12-23T22:29:37.715Z,14.10
2018-12-23T22:32:05.376Z,19.50
2018-12-23T22:34:32.975Z,17.10
2018-12-23T22:37:00.618Z,12.40
2018-12-23T22:39:28.225Z,11.37
2018-12-23T22:41:56.099Z,15.10
2018-12-23T22:44:24.272Z,12.07
2018-12-23T22:46:51.867Z,8.50
2018-12-23T22:49:19.600Z,12.27
2018-12-23T22:51:47.306Z,11.70
2018-12-23T22:54:14.911Z,11.03
2018-12-23T22:56:42.528Z,13.33
2018-12-23T22:59:10.229Z,14.77
2018-12-23T23:01:40.124Z,16.43
2018-12-23T23:04:08.180Z,19.93
2018-12-23T23:06:35.794Z,20.17
2018-12-23T23:09:05.538Z,18.20
2018-12-23T23:11:33.216Z,29.40
2018-12-23T23:14:00.859Z,25.23
2018-12-23T23:16:28.538Z,23.83
2018-12-23T23:18:56.470Z,20.83
2018-12-23T23:21:24.219Z,18.23
2018-12-23T23:23:52.041Z,17.27
2018-12-23T23:26:19.652Z,27.07
2018-12-23T23:28:47.321Z,18.73
2018-12-23T23:31:14.963Z,25.43
2018-12-23T23:33:42.693Z,20.90
2018-12-23T23:36:10.373Z,33.03
2018-12-23T23:38:38.097Z,21.70
2018-12-23T23:41:05.892Z,20.30
2018-12-23T23:43:33.594Z,24.47
2018-12-23T23:46:01.264Z,18.23
2018-12-23T23:48:28.917Z,26.67
2018-12-23T23:50:56.671Z,25.60
2018-12-23T23:53:24.380Z,24.53
2018-12-23T23:55:52.308Z,25.90
2018-12-23T23:58:20.219Z,26.93
